Time;durP1;ratioP1;P1;durP2;ratioP2;P2;SDS_P1;SDS_P2;PMS_P1;PMS_P2;Temp;Humidity;BMP_temperature;BMP_pressure;BME280_temperature;BME280_humidity;BME280_pressure;Samples;Min_cycle;Max_cycle;Signal;HPM_P1;HPM_P2
2024/01/07 09:24:23;;;;;;;23.88;9.55;;;;;;;0.52;100.00;102134.84;3824914;24;20457;-74
2024/01/07 09:26:48;;;;;;;25.90;10.13;;;;;;;0.54;100.00;102138.34;4834491;29;20034;-71
2024/01/07 09:29:14;;;;;;;23.80;9.82;;;;;;;0.56;100.00;102140.97;4853390;29;20033;-73
2024/01/07 09:31:39;;;;;;;22.88;10.10;;;;;;;0.60;100.00;102148.88;4849675;29;20038;-73
2024/01/07 09:34:06;;;;;;;23.20;9.93;;;;;;;0.63;100.00;102153.25;4847511;29;20029;-74
2024/01/07 09:36:32;;;;;;;22.50;10.27;;;;;;;0.55;98.39;102157.75;4845561;29;20035;-71
2024/01/07 09:38:57;;;;;;;22.50;9.57;;;;;;;0.54;99.69;102158.66;4854689;29;20101;-72
2024/01/07 09:41:22;;;;;;;24.90;9.73;;;;;;;0.53;99.59;102160.41;4843171;29;20033;-73
2024/01/07 09:43:48;;;;;;;22.88;8.70;;;;;;;0.51;99.75;102167.47;4845472;29;20030;-74
2024/01/07 09:46:13;;;;;;;21.85;9.38;;;;;;;0.52;100.00;102162.16;4845168;29;20037;-75
2024/01/07 09:48:39;;;;;;;22.48;9.10;;;;;;;0.57;100.00;102164.78;4844207;29;20059;-76
2024/01/07 09:51:10;;;;;;;23.38;9.73;;;;;;;0.64;100.00;102173.53;4847423;29;20036;-76
2024/01/07 09:53:38;;;;;;;23.42;10.45;;;;;;;0.64;100.00;102176.16;4843279;29;20627;-76
2024/01/07 09:56:13;;;;;;;20.60;9.18;;;;;;;0.63;100.00;102179.69;4861220;24;20118;-74
2024/01/07 09:58:38;;;;;;;22.52;9.73;;;;;;;0.63;100.00;102179.69;4855853;29;20494;-74
2024/01/07 10:01:04;;;;;;;21.77;8.85;;;;;;;0.63;100.00;102191.19;4857066;29;20029;-75
2024/01/07 10:03:30;;;;;;;23.45;9.07;;;;;;;0.56;98.85;102199.16;4855597;29;20589;-74
2024/01/07 10:05:55;;;;;;;21.65;9.02;;;;;;;0.57;99.20;102193.91;4850569;29;20032;-74
2024/01/07 10:08:21;;;;;;;21.65;9.20;;;;;;;0.58;99.26;102195.63;4857156;29;20093;-74
2024/01/07 10:10:48;;;;;;;20.88;7.90;;;;;;;0.58;98.53;102203.56;4855751;29;20116;-74
2024/01/07 10:13:14;;;;;;;20.80;8.15;;;;;;;0.60;99.90;102204.44;4855150;29;20188;-74
2024/01/07 10:15:39;;;;;;;21.15;8.98;;;;;;;0.58;98.64;102208.00;4853897;29;20112;-74
2024/01/07 10:18:06;;;;;;;21.63;8.63;;;;;;;0.52;97.81;102215.06;4857524;29;20048;-74
2024/01/07 10:20:33;;;;;;;18.58;8.02;;;;;;;0.49;98.16;102214.25;4855686;29;20464;-74
2024/01/07 10:22:59;;;;;;;21.00;9.15;;;;;;;0.42;97.45;102215.19;4851721;29;20048;-74
2024/01/07 10:25:25;;;;;;;21.00;8.77;;;;;;;0.43;99.31;102216.94;4856693;29;20033;-74
2024/01/07 10:27:50;;;;;;;20.48;8.65;;;;;;;0.46;99.48;102216.91;4857507;29;20104;-75
2024/01/07 10:30:16;;;;;;;22.70;9.68;;;;;;;0.45;99.03;102223.97;4853141;29;20029;-74
2024/01/07 10:32:42;;;;;;;21.92;9.80;;;;;;;0.45;98.95;102228.38;4856687;29;20494;-74
2024/01/07 10:35:12;;;;;;;21.50;8.82;;;;;;;0.44;99.07;102222.22;4857675;29;20033;-81
2024/01/07 10:37:39;;;;;;;22.65;9.63;;;;;;;0.46;97.92;102222.22;4855738;29;20029;-81
2024/01/07 10:40:07;;;;;;;21.58;9.65;;;;;;;0.46;98.05;102215.13;4858322;29;20021;-80
2024/01/07 10:42:33;;;;;;;20.08;8.45;;;;;;;0.47;98.36;102216.00;4858125;29;20081;-80
2024/01/07 10:45:02;;;;;;;22.23;10.10;;;;;;;0.56;99.49;102209.75;4859125;29;20413;-81
2024/01/07 10:47:31;;;;;;;21.98;9.60;;;;;;;0.60;99.61;102212.38;4855812;29;20037;-79
2024/01/07 10:49:58;;;;;;;22.63;9.48;;;;;;;0.61;97.44;102214.13;4856387;29;20033;-80
2024/01/07 10:52:24;;;;;;;20.98;8.95;;;;;;;0.59;98.60;102210.63;4858153;29;20347;-80
2024/01/07 10:54:49;;;;;;;22.10;9.70;;;;;;;0.61;98.78;102218.53;4858235;29;20076;-81
2024/01/07 10:57:40;;;;;;;21.65;8.75;;;;;;;0.61;99.42;102210.59;4857016;29;20041;-81
2024/01/07 11:00:07;;;;;;;23.08;9.07;;;;;;;0.59;99.79;102221.19;4868920;29;20041;-73
2024/01/07 11:02:47;;;;;;;19.05;8.52;;;;;;;0.63;100.00;102217.63;4856055;29;20102;-73
2024/01/07 11:05:25;;;;;;;21.92;9.20;;;;;;;0.68;100.00;102218.44;4850871;29;20321;-72
2024/01/07 11:08:00;;;;;;;21.67;9.55;;;;;;;0.74;100.00;102221.94;4851894;29;20053;-75
2024/01/07 11:10:36;;;;;;;22.83;8.32;;;;;;;0.76;100.00;102226.34;4852614;29;20041;-74
2024/01/07 11:13:01;;;;;;;21.50;8.90;;;;;;;0.78;99.71;102236.91;4854901;29;20043;-70
2024/01/07 11:15:48;;;;;;;22.70;10.13;;;;;;;0.77;100.00;102230.72;4855921;29;20045;-71
2024/01/07 11:18:20;;;;;;;24.02;9.50;;;;;;;0.73;99.44;102222.81;4857151;29;20382;-77
2024/01/07 11:20:46;;;;;;;21.23;8.82;;;;;;;0.73;99.33;102233.41;4856622;29;20076;-72
2024/01/07 11:23:36;;;;;;;24.42;10.60;;;;;;;0.80;99.89;102237.75;4853458;29;20057;-73
2024/01/07 11:26:02;;;;;;;21.10;10.43;;;;;;;0.82;98.69;102233.31;4856329;29;20029;-74
2024/01/07 11:28:52;;;;;;;23.58;9.50;;;;;;;0.82;97.92;102231.56;4856304;29;20033;-72
2024/01/07 11:31:44;;;;;;;22.45;9.25;;;;;;;0.84;98.04;102236.84;4849296;29;20041;-73
2024/01/07 11:34:09;;;;;;;22.63;9.68;;;;;;;0.84;96.89;102236.84;4853094;29;20105;-74
2024/01/07 11:36:38;;;;;;;26.13;10.50;;;;;;;0.81;95.38;102239.53;4851554;29;20640;-74
2024/01/07 11:39:08;;;;;;;22.02;9.18;;;;;;;0.80;95.87;102237.75;4854947;29;20067;-74
2024/01/07 11:41:33;;;;;;;;;;;;;;;0.85;96.68;102231.53;4856135;29;20025;-73
2024/01/07 11:44:00;;;;;;;22.02;8.88;;;;;;;0.75;95.36;102239.56;4855946;29;19916;-74
2024/01/07 11:46:26;;;;;;;22.75;10.00;;;;;;;0.72;94.21;102235.19;4855069;29;20034;-74
2024/01/07 11:48:59;;;;;;;22.52;9.68;;;;;;;0.74;93.47;102240.47;4855022;29;20036;-75
2024/01/07 11:51:32;;;;;;;21.88;9.20;;;;;;;0.74;94.38;102229.88;4854394;29;20615;-74
2024/01/07 11:53:58;;;;;;;24.77;11.00;;;;;;;0.74;93.99;102230.75;4854693;29;20493;-74
2024/01/07 11:56:26;;;;;;;22.42;9.15;;;;;;;0.77;93.19;102229.84;4855939;29;20304;-74
2024/01/07 11:58:52;;;;;;;22.63;8.82;;;;;;;0.84;95.13;102228.91;4854730;29;20030;-73
2024/01/07 12:01:18;;;;;;;24.92;10.02;;;;;;;0.92;93.87;102223.50;4854897;29;20060;-75
2024/01/07 12:03:44;;;;;;;22.35;8.35;;;;;;;0.96;92.85;102225.25;4853507;29;20064;-76
2024/01/07 12:06:13;;;;;;;21.75;8.77;;;;;;;0.96;92.39;102228.75;4848118;29;20029;-74
2024/01/07 12:08:42;;;;;;;26.05;9.00;;;;;;;0.98;93.27;102236.66;4855990;29;20093;-74
2024/01/07 12:11:11;;;;;;;24.75;9.82;;;;;;;0.98;92.71;102226.09;4860149;29;20056;-74
2024/01/07 12:13:37;;;;;;;22.02;8.98;;;;;;;0.95;90.97;102234.06;4859288;29;20387;-74
2024/01/07 12:16:03;;;;;;;21.63;8.75;;;;;;;1.00;92.62;102233.13;4859826;29;20086;-75
2024/01/07 12:18:29;;;;;;;21.52;8.70;;;;;;;1.00;91.74;102238.41;4858957;29;20427;-74
2024/01/07 12:20:56;;;;;;;19.58;8.15;;;;;;;1.05;92.60;102238.38;4858533;29;20186;-75
2024/01/07 12:23:22;;;;;;;21.60;8.88;;;;;;;0.99;89.97;102238.44;4858567;29;20025;-74
2024/01/07 12:25:47;;;;;;;20.83;7.82;;;;;;;0.94;89.83;102248.19;4857782;29;20295;-73
2024/01/07 12:28:13;;;;;;;22.90;8.90;;;;;;;0.94;91.03;102246.44;4858253;29;20042;-72
2024/01/07 12:30:38;;;;;;;21.13;7.80;;;;;;;0.95;90.11;102244.66;4858050;29;20021;-75
2024/01/07 12:33:07;;;;;;;20.27;7.80;;;;;;;0.97;89.79;102243.75;4859949;29;20105;-75
2024/01/07 12:35:32;;;;;;;20.17;7.55;;;;;;;0.95;89.78;102245.56;4858258;29;20034;-76
2024/01/07 12:37:59;;;;;;;20.35;7.90;;;;;;;0.92;89.41;102247.34;4858396;29;20049;-73
2024/01/07 12:40:26;;;;;;;18.55;7.30;;;;;;;0.92;89.95;102250.84;4857527;29;20519;-75
2024/01/07 12:42:52;;;;;;;19.52;7.53;;;;;;;0.94;89.02;102254.38;4856187;29;20109;-76
2024/01/07 12:45:17;;;;;;;18.17;7.13;;;;;;;0.95;88.30;102255.25;4857698;29;20034;-73
2024/01/07 12:47:43;;;;;;;18.92;7.43;;;;;;;0.92;88.09;102260.56;4858407;29;20041;-74
2024/01/07 12:50:10;;;;;;;17.85;7.13;;;;;;;0.82;86.98;102259.78;4857627;29;20022;-73
2024/01/07 12:52:37;;;;;;;18.67;7.00;;;;;;;0.75;86.93;102263.38;4858345;29;20367;-68
2024/01/07 12:55:02;;;;;;;186.38;29.65;;;;;;;0.72;87.62;102268.69;4863037;29;20260;-71
2024/01/07 12:57:28;;;;;;;20.52;7.90;;;;;;;0.71;87.68;102269.59;4860266;29;20030;-69
2024/01/07 12:59:54;;;;;;;19.80;7.60;;;;;;;0.68;88.04;102268.72;4859456;29;20037;-69
2024/01/07 13:02:19;;;;;;;20.50;8.20;;;;;;;0.70;87.35;102276.66;4855901;29;20041;-67
2024/01/07 13:04:45;;;;;;;19.05;6.68;;;;;;;0.72;86.56;102279.28;4863623;29;20021;-71
2024/01/07 13:07:10;;;;;;;17.00;6.35;;;;;;;0.67;85.46;102271.38;4876228;29;20037;-75
2024/01/07 13:09:35;;;;;;;17.80;6.68;;;;;;;0.68;86.41;102287.25;4874804;29;20048;-74
2024/01/07 13:12:01;;;;;;;18.80;7.13;;;;;;;0.68;85.59;102283.75;4874050;29;20096;-74
2024/01/07 13:14:26;;;;;;;19.10;7.15;;;;;;;0.65;84.69;102284.63;4866926;29;20081;-74
2024/01/07 13:16:52;;;;;;;19.30;6.80;;;;;;;0.62;83.80;102289.09;4867932;29;20029;-75
2024/01/07 13:19:17;;;;;;;16.95;6.57;;;;;;;0.64;84.53;102295.22;4870096;29;20112;-76
2024/01/07 13:21:42;;;;;;;18.40;6.60;;;;;;;0.65;85.09;102289.94;4871167;29;20049;-75
2024/01/07 13:24:07;;;;;;;18.42;6.75;;;;;;;0.65;84.48;102297.88;4867853;29;20029;-74
2024/01/07 13:26:33;;;;;;;19.48;6.40;;;;;;;0.68;85.27;102299.63;4869332;29;20038;-74
2024/01/07 13:28:58;;;;;;;19.13;6.78;;;;;;;0.69;85.37;102302.25;4868181;29;20040;-74
2024/01/07 13:31:23;;;;;;;18.52;6.43;;;;;;;0.66;83.61;102310.22;4867589;29;20097;-74
2024/01/07 13:33:49;;;;;;;16.95;5.82;;;;;;;0.64;83.77;102309.31;4867843;29;20037;-75
2024/01/07 13:36:14;;;;;;;15.50;5.35;;;;;;;0.67;84.04;102306.69;4869334;29;20501;-75
2024/01/07 13:38:41;;;;;;;15.75;5.32;;;;;;;0.67;83.01;102313.72;4870292;29;20082;-75
2024/01/07 13:41:07;;;;;;;13.63;4.70;;;;;;;0.64;82.35;102313.75;4867703;29;20906;-74
2024/01/07 13:43:33;;;;;;;15.23;5.15;;;;;;;0.51;82.41;102311.22;4868019;29;20095;-74
2024/01/07 13:45:58;;;;;;;14.90;5.43;;;;;;;0.43;81.53;102330.69;4871493;29;20120;-74
2024/01/07 13:48:23;;;;;;;16.02;4.30;;;;;;;0.38;82.48;102332.47;4867845;29;20402;-75
2024/01/07 13:50:49;;;;;;;14.60;4.28;;;;;;;0.25;80.25;102327.28;4867925;29;20067;-74
2024/01/07 13:53:15;;;;;;;14.90;4.75;;;;;;;0.26;81.63;102336.06;4869630;29;20029;-75
2024/01/07 13:55:40;;;;;;;14.15;4.63;;;;;;;0.26;80.73;102338.72;4866043;29;20049;-75
2024/01/07 13:58:05;;;;;;;13.50;4.40;;;;;;;0.30;80.17;102335.16;4867589;29;20038;-76
2024/01/07 14:00:31;;;;;;;12.98;4.30;;;;;;;0.32;79.87;102338.66;4866261;29;20040;-74
2024/01/07 14:02:57;;;;;;;11.85;4.18;;;;;;;0.37;78.84;102349.22;4867279;29;20029;-74
2024/01/07 14:05:22;;;;;;;14.93;4.65;;;;;;;0.42;80.31;102339.50;4871048;29;20037;-74
2024/01/07 14:07:47;;;;;;;12.45;3.53;;;;;;;0.50;80.98;102348.28;4879214;29;20034;-75
2024/01/07 14:10:13;;;;;;;10.70;3.78;;;;;;;0.56;79.81;102347.31;4871483;29;20705;-78
2024/01/07 14:12:38;;;;;;;14.38;4.32;;;;;;;0.59;79.12;102355.25;4872280;29;20025;-76
2024/01/07 14:15:04;;;;;;;13.02;4.32;;;;;;;0.48;78.22;102355.31;4867751;29;20030;-75
2024/01/07 14:17:30;;;;;;;13.43;3.83;;;;;;;0.53;80.66;102348.25;4871400;29;20033;-75
2024/01/07 14:19:55;;;;;;;11.32;4.18;;;;;;;0.57;78.92;102360.56;4877149;29;20097;-77
2024/01/07 14:22:21;;;;;;;12.85;4.78;;;;;;;0.59;78.08;102356.13;4871504;29;20024;-79
2024/01/07 14:24:47;;;;;;;10.65;3.60;;;;;;;0.60;78.33;102360.53;4863628;29;20078;-77
2024/01/07 14:27:17;;;;;;;12.52;4.15;;;;;;;0.50;77.10;102365.00;4869785;29;20054;-77
2024/01/07 14:29:44;;;;;;;11.32;4.32;;;;;;;0.42;76.89;102373.88;4870009;29;20470;-76
2024/01/07 14:32:10;;;;;;;9.55;3.67;;;;;;;0.40;77.02;102380.97;4877568;29;20022;-74
2024/01/07 14:34:38;;;;;;;10.55;3.63;;;;;;;0.36;77.25;102381.88;4876026;29;20056;-74
2024/01/07 14:37:04;;;;;;;12.18;3.33;;;;;;;0.24;75.71;102386.31;4877055;29;20033;-78
2024/01/07 14:39:29;;;;;;;14.02;3.67;;;;;;;0.25;77.20;102384.53;4871834;29;20049;-74
2024/01/07 14:41:54;;;;;;;7.90;2.90;;;;;;;0.20;77.06;102384.56;4872869;29;20094;-75
2024/01/07 14:44:22;;;;;;;11.93;3.55;;;;;;;0.14;75.51;102387.25;4867484;29;20035;-78
2024/01/07 14:46:48;;;;;;;12.13;3.63;;;;;;;0.19;78.44;102395.16;4870716;29;20025;-75
2024/01/07 14:49:13;;;;;;;10.60;3.63;;;;;;;0.12;75.45;102394.34;4878063;29;20009;-76
2024/01/07 14:51:38;;;;;;;11.63;4.10;;;;;;;0.09;76.62;102404.91;4878178;29;20062;-75
2024/01/07 14:54:04;;;;;;;9.93;3.42;;;;;;;0.04;76.10;102412.84;4875603;29;20062;-75
2024/01/07 14:56:29;;;;;;;10.18;3.75;;;;;;;0.05;76.82;102413.75;4873734;29;20045;-74
2024/01/07 14:58:55;;;;;;;12.52;3.40;;;;;;;0.01;75.21;102412.00;4872917;29;20068;-75
2024/01/07 15:01:21;;;;;;;9.30;3.35;;;;;;;0.02;76.57;102424.34;4874799;29;20047;-73
2024/01/07 15:03:46;;;;;;;11.48;3.58;;;;;;;-0.06;74.70;102419.97;4877401;29;20030;-73
2024/01/07 15:06:14;;;;;;;10.65;3.33;;;;;;;-0.08;75.50;102427.00;4876364;29;20136;-75
2024/01/07 15:08:41;;;;;;;10.90;3.92;;;;;;;-0.14;75.14;102427.03;4880316;29;20030;-74
2024/01/07 15:11:06;;;;;;;11.68;3.70;;;;;;;-0.13;76.42;102442.00;4881763;29;20022;-74
2024/01/07 15:13:31;;;;;;;12.30;4.13;;;;;;;-0.12;76.27;102438.44;4881029;29;20025;-74
2024/01/07 15:15:57;;;;;;;9.20;3.58;;;;;;;-0.10;77.29;102451.66;4875633;29;20041;-76
2024/01/07 15:18:22;;;;;;;10.63;3.22;;;;;;;-0.13;77.12;102457.84;4867419;29;20101;-74
2024/01/07 15:20:47;;;;;;;9.13;3.17;;;;;;;-0.23;76.95;102453.47;4867499;29;20021;-74
2024/01/07 15:23:12;;;;;;;11.65;3.50;;;;;;;-0.31;76.94;102464.03;4864159;29;20054;-75
2024/01/07 15:25:38;;;;;;;12.82;3.92;;;;;;;-0.36;77.35;102471.13;4868665;29;20446;-74
2024/01/07 15:28:03;;;;;;;9.90;3.45;;;;;;;-0.45;75.94;102471.13;4873682;29;20043;-74
2024/01/07 15:30:28;;;;;;;11.57;3.35;;;;;;;-0.55;77.11;102475.53;4875792;29;20038;-74
2024/01/07 15:32:54;;;;;;;10.70;3.70;;;;;;;-0.66;76.34;102477.28;4871331;29;20037;-74
2024/01/07 15:35:19;;;;;;;10.35;3.13;;;;;;;-0.67;78.02;102486.09;4873487;29;20026;-74
2024/01/07 15:37:44;;;;;;;13.73;3.60;;;;;;;-0.68;77.72;102484.34;4874972;29;20026;-74
2024/01/07 15:40:10;;;;;;;12.07;3.95;;;;;;;-0.71;77.99;102480.81;4875067;29;20049;-74
2024/01/07 15:42:35;;;;;;;12.70;3.75;;;;;;;-0.77;77.06;102490.50;4872125;29;20033;-74
2024/01/07 15:45:01;;;;;;;13.25;3.42;;;;;;;-0.81;77.35;102497.53;4874785;29;20097;-74
2024/01/07 15:47:27;;;;;;;9.98;3.72;;;;;;;-0.84;76.44;102499.31;4876460;29;20060;-74
2024/01/07 15:49:52;;;;;;;13.05;4.13;;;;;;;-0.85;78.87;102498.41;4877970;29;20065;-74
2024/01/07 15:52:18;;;;;;;13.55;3.72;;;;;;;-0.87;79.22;102489.63;4877782;29;20049;-73
2024/01/07 15:54:43;;;;;;;12.20;3.22;;;;;;;-0.86;78.62;102496.66;4875648;29;20085;-74
2024/01/07 15:57:08;;;;;;;13.25;3.83;;;;;;;-0.85;78.56;102498.41;4875354;29;20425;-74
2024/01/07 15:59:34;;;;;;;12.07;3.55;;;;;;;-0.86;77.94;102501.94;4878178;29;20097;-74
2024/01/07 16:01:59;;;;;;;15.63;3.95;;;;;;;-0.84;79.24;102509.88;4874602;29;20089;-74
2024/01/07 16:04:25;;;;;;;10.05;3.08;;;;;;;-0.84;78.68;102508.09;4877200;29;20033;-73
2024/01/07 16:06:51;;;;;;;12.65;3.75;;;;;;;-0.87;78.01;102510.72;4866948;29;20485;-74
2024/01/07 16:09:16;;;;;;;13.23;4.00;;;;;;;-0.90;78.24;102521.28;4870690;29;20037;-74
2024/01/07 16:11:42;;;;;;;9.45;3.03;;;;;;;-0.89;78.46;102517.78;4866892;29;20048;-74
2024/01/07 16:14:08;;;;;;;13.88;3.95;;;;;;;-0.89;78.24;102520.41;4871345;29;20096;-73
2024/01/07 16:16:35;;;;;;;7.90;2.90;;;;;;;-0.90;79.31;102523.94;4874041;29;20017;-74
2024/01/07 16:19:01;;;;;;;13.25;3.20;;;;;;;-0.90;78.60;102521.28;4865421;29;20033;-74
2024/01/07 16:21:26;;;;;;;10.27;3.60;;;;;;;-0.90;79.46;102521.28;4872375;29;20406;-74
2024/01/07 16:23:51;;;;;;;11.93;3.58;;;;;;;-0.94;78.73;102532.72;4871309;29;20050;-74
2024/01/07 16:26:17;;;;;;;13.05;3.28;;;;;;;-0.97;79.33;102532.72;4868762;29;20029;-73
2024/01/07 16:28:42;;;;;;;11.68;3.78;;;;;;;-0.98;80.43;102537.13;4861576;29;20120;-77
2024/01/07 16:31:09;;;;;;;11.20;3.10;;;;;;;-1.01;79.46;102539.75;4862377;29;20057;-78
2024/01/07 16:33:35;;;;;;;11.18;3.75;;;;;;;-1.02;80.28;102548.53;4869792;29;20047;-75
2024/01/07 16:36:00;;;;;;;11.82;3.30;;;;;;;-1.02;81.27;102547.66;4864190;29;20026;-73
2024/01/07 16:38:26;;;;;;;13.65;4.43;;;;;;;-1.06;80.17;102555.56;4869405;29;20033;-74
2024/01/07 16:40:51;;;;;;;12.57;3.92;;;;;;;-1.08;80.89;102559.97;4862052;29;20072;-74
2024/01/07 16:43:16;;;;;;;11.10;3.17;;;;;;;-1.12;81.37;102558.19;4864754;29;20029;-74
2024/01/07 16:45:42;;;;;;;8.82;3.22;;;;;;;-1.13;81.91;102566.09;4866730;29;20081;-72
2024/01/07 16:48:07;;;;;;;11.52;3.13;;;;;;;-1.14;81.33;102559.94;4873276;29;20022;-74
2024/01/07 16:50:32;;;;;;;12.68;3.53;;;;;;;-1.15;81.88;102568.72;4874628;29;20065;-74
2024/01/07 16:52:58;;;;;;;12.48;3.13;;;;;;;-1.16;81.83;102574.88;4876556;29;20034;-74
2024/01/07 16:55:23;;;;;;;14.82;3.33;;;;;;;-1.17;81.77;102573.13;4876333;29;20054;-74
2024/01/07 16:57:49;;;;;;;9.13;3.20;;;;;;;-1.17;81.85;102575.78;4872892;29;20044;-74
2024/01/07 17:00:18;;;;;;;14.25;3.63;;;;;;;-1.18;82.25;102584.56;4877092;29;20120;-75
2024/01/07 17:02:44;;;;;;;;;;;;;;;-1.16;82.49;102582.78;4873537;29;20025;-74
2024/01/07 17:05:10;;;;;;;13.32;3.25;;;;;;;-1.18;82.62;102581.03;4874876;29;19976;-74
2024/01/07 17:07:35;;;;;;;11.30;3.25;;;;;;;-1.20;82.30;102583.69;4870067;29;20109;-72
2024/01/07 17:10:00;;;;;;;14.73;3.83;;;;;;;-1.20;82.03;102591.59;4871598;29;20032;-73
2024/01/07 17:12:25;;;;;;;13.50;4.35;;;;;;;-1.21;82.00;102584.53;4873299;29;20037;-76
2024/01/07 17:14:52;;;;;;;11.30;3.47;;;;;;;-1.23;82.21;102592.44;4874930;29;20059;-76
2024/01/07 17:17:19;;;;;;;15.40;4.80;;;;;;;-1.19;82.43;102601.25;4872266;29;20089;-75
2024/01/07 17:19:45;;;;;;;16.60;6.45;;;;;;;-1.17;82.69;102601.25;4868304;29;20118;-74
2024/01/07 17:22:10;;;;;;;13.05;4.18;;;;;;;-1.16;82.36;102603.03;4865357;29;20065;-75
2024/01/07 17:24:36;;;;;;;21.67;8.77;;;;;;;-1.15;83.85;102604.78;4880566;29;20096;-77
2024/01/07 17:27:02;;;;;;;12.05;3.70;;;;;;;-1.15;83.08;102610.94;4889390;24;20057;-70
2024/01/07 17:29:27;;;;;;;12.13;3.80;;;;;;;-1.16;82.95;102614.44;4866647;29;20033;-72
2024/01/07 17:31:52;;;;;;;14.02;5.25;;;;;;;-1.15;83.53;102621.50;4866439;29;20557;-70
2024/01/07 17:34:18;;;;;;;24.83;4.72;;;;;;;-1.13;83.94;102618.84;4865205;29;20028;-68
2024/01/07 17:36:43;;;;;;;9.60;3.45;;;;;;;-1.15;83.09;102623.25;4863458;29;20124;-71
2024/01/07 17:39:09;;;;;;;9.85;3.60;;;;;;;-1.18;83.53;102617.97;4857802;29;20146;-71
2024/01/07 17:41:36;;;;;;;12.88;3.30;;;;;;;-1.16;83.45;102624.13;4868916;29;20056;-71
2024/01/07 17:44:02;;;;;;;14.88;4.13;;;;;;;-1.17;83.33;102627.63;4866104;29;20026;-70
2024/01/07 17:46:27;;;;;;;12.40;4.18;;;;;;;-1.18;84.14;102632.03;4865847;29;20029;-71
2024/01/07 17:48:52;;;;;;;11.52;3.45;;;;;;;-1.18;84.29;102628.53;4867455;29;20421;-70
2024/01/07 17:51:21;;;;;;;11.27;2.92;;;;;;;-1.19;84.40;102626.75;4865707;29;20033;-71
2024/01/07 17:53:47;;;;;;;14.90;4.18;;;;;;;-1.18;84.49;102625.88;4863590;29;20024;-71
2024/01/07 17:56:21;;;;;;;14.15;6.43;;;;;;;-1.20;84.31;102631.16;4865345;29;20039;-70
2024/01/07 17:58:49;;;;;;;17.83;6.18;;;;;;;-1.21;83.87;102636.44;4862788;29;20045;-71
2024/01/07 18:01:14;;;;;;;28.48;23.05;;;;;;;-1.17;84.28;102639.09;4856993;29;20029;-70
2024/01/07 18:03:39;;;;;;;17.80;6.57;;;;;;;-1.18;84.36;102645.22;4860312;29;20045;-70
2024/01/07 18:06:05;;;;;;;12.30;3.53;;;;;;;-1.18;83.90;102639.94;4853185;29;20117;-69
2024/01/07 18:08:30;;;;;;;18.08;5.00;;;;;;;-1.17;84.37;102647.00;4862843;29;20088;-71
2024/01/07 18:10:55;;;;;;;14.40;4.00;;;;;;;-1.14;84.49;102659.31;4862683;29;20025;-72
2024/01/07 18:13:21;;;;;;;14.63;4.55;;;;;;;-1.15;85.04;102650.53;4866756;29;20195;-72
2024/01/07 18:15:47;;;;;;;21.13;6.72;;;;;;;-1.08;84.65;102662.88;4873273;29;20035;-73
2024/01/07 18:18:12;;;;;;;12.85;3.55;;;;;;;-1.03;84.37;102652.31;4867021;29;20029;-75
2024/01/07 18:20:38;;;;;;;13.30;3.40;;;;;;;-0.98;84.77;102658.53;4867393;29;20036;-73
2024/01/07 18:23:03;;;;;;;12.82;3.92;;;;;;;-0.94;83.68;102662.94;4867460;29;20025;-75
2024/01/07 18:25:29;;;;;;;12.45;3.63;;;;;;;-0.94;84.34;102664.69;4868541;29;20021;-75
2024/01/07 18:27:54;;;;;;;18.38;3.83;;;;;;;-0.91;84.39;102667.31;4865894;29;20117;-74
2024/01/07 18:30:19;;;;;;;12.88;3.80;;;;;;;-0.91;84.65;102668.22;4860511;29;20143;-74
2024/01/07 18:32:44;;;;;;;12.55;4.30;;;;;;;-0.90;85.04;102669.97;4865032;29;20044;-74
2024/01/07 18:35:10;;;;;;;14.10;4.00;;;;;;;-0.91;84.44;102673.50;4865329;29;20081;-74
2024/01/07 18:37:36;;;;;;;16.33;4.85;;;;;;;-0.90;84.56;102682.28;4859141;29;20455;-74
2024/01/07 18:40:02;;;;;;;14.48;4.43;;;;;;;-0.90;84.56;102682.28;4860278;29;20036;-75
2024/01/07 18:42:27;;;;;;;14.65;4.15;;;;;;;-0.91;85.17;102684.06;4860125;29;20037;-74
2024/01/07 18:44:53;;;;;;;12.15;3.65;;;;;;;-0.95;84.72;102686.66;4859881;29;20049;-75
2024/01/07 18:47:18;;;;;;;10.50;3.35;;;;;;;-1.00;85.07;102684.00;4861846;29;20137;-75
2024/01/07 18:49:43;;;;;;;8.63;3.17;;;;;;;-1.06;85.10;102690.13;4863092;29;20039;-75
2024/01/07 18:52:12;;;;;;;18.42;4.90;;;;;;;-1.07;85.83;102687.47;4866927;29;21953;-75
2024/01/07 18:54:41;;;;;;;13.90;4.53;;;;;;;-1.07;86.29;102696.31;4861530;29;20427;-75
2024/01/07 18:57:12;;;;;;;14.27;4.05;;;;;;;-1.07;86.13;102690.13;4867602;29;20037;-75
2024/01/07 18:59:38;;;;;;;14.52;4.47;;;;;;;-1.12;86.52;102700.66;4867878;29;20159;-75
2024/01/07 19:02:04;;;;;;;13.50;4.40;;;;;;;-1.11;86.67;102701.56;4863873;29;20037;-74
2024/01/07 19:04:29;;;;;;;15.75;4.93;;;;;;;-1.11;87.32;102702.44;4859267;29;20055;-74
2024/01/07 19:06:55;;;;;;;11.98;4.18;;;;;;;-1.11;88.12;102705.06;4862917;29;20521;-74
2024/01/07 19:09:22;;;;;;;15.80;5.05;;;;;;;-1.12;88.09;102710.34;4866069;29;20467;-74
2024/01/07 19:11:47;;;;;;;14.75;4.85;;;;;;;-1.13;88.53;102719.13;4859244;29;20026;-74
2024/01/07 19:14:13;;;;;;;12.32;3.72;;;;;;;-1.15;88.49;102718.25;4867489;29;20120;-75
2024/01/07 19:16:41;;;;;;;13.95;4.07;;;;;;;-1.19;88.26;102717.31;4875737;29;20032;-75
2024/01/07 19:19:07;;;;;;;12.38;3.72;;;;;;;-1.23;88.64;102728.72;4875611;29;20041;-75
2024/01/07 19:21:33;;;;;;;13.52;4.35;;;;;;;-1.29;89.23;102729.59;4870868;29;20048;-75
2024/01/07 19:23:59;;;;;;;17.08;4.13;;;;;;;-1.32;89.39;102728.69;4877288;29;20037;-77
2024/01/07 19:26:26;;;;;;;13.00;4.18;;;;;;;-1.25;90.87;102735.78;4857593;29;20040;-70
2024/01/07 19:28:52;;;;;;;15.25;4.43;;;;;;;-0.96;89.81;102738.56;4858376;29;20562;-70
2024/01/07 19:31:17;;;;;;;14.35;4.43;;;;;;;-0.69;88.75;102730.78;4854618;29;20037;-69
2024/01/07 19:33:43;;;;;;;14.98;4.75;;;;;;;-0.46;87.49;102729.09;4857922;29;20513;-68
2024/01/07 19:36:08;;;;;;;15.73;4.88;;;;;;;-0.27;86.06;102731.78;4846807;29;20029;-69
2024/01/07 19:38:34;;;;;;;18.20;5.82;;;;;;;-0.12;85.31;102726.53;4849324;29;20237;-69
2024/01/07 19:40:59;;;;;;;15.85;5.00;;;;;;;-0.02;85.03;102730.94;4850789;29;20033;-69
2024/01/07 19:43:24;;;;;;;14.52;4.80;;;;;;;0.09;84.70;102732.72;4856263;29;20044;-69
2024/01/07 19:45:50;;;;;;;15.30;4.68;;;;;;;0.16;83.89;102734.47;4858987;29;20037;-69
2024/01/07 19:48:15;;;;;;;18.30;5.25;;;;;;;0.23;83.49;102730.09;4865141;29;20021;-69
2024/01/07 19:50:45;;;;;;;19.85;5.35;;;;;;;0.28;83.30;102733.59;4859720;29;20036;-69
2024/01/07 19:53:12;;;;;;;19.30;5.22;;;;;;;0.29;82.94;102730.09;4850651;29;20025;-69
2024/01/07 19:55:38;;;;;;;16.73;5.00;;;;;;;0.33;83.39;102738.00;4857387;29;20061;-69
2024/01/07 19:58:05;;;;;;;14.18;4.97;;;;;;;0.38;82.75;102734.50;4853122;29;20033;-69
2024/01/07 20:00:30;;;;;;;13.13;4.90;;;;;;;0.39;82.92;102733.63;4849267;29;20121;-69
2024/01/07 20:02:55;;;;;;;15.20;5.15;;;;;;;0.39;82.43;102737.13;4855908;29;20056;-70
2024/01/07 20:05:21;;;;;;;18.05;6.13;;;;;;;0.39;82.76;102746.84;4862191;29;20710;-70
2024/01/07 20:07:46;;;;;;;15.90;5.45;;;;;;;0.38;82.97;102742.44;4862842;29;20034;-70
2024/01/07 20:10:11;;;;;;;18.50;5.68;;;;;;;0.39;82.85;102747.72;4854245;29;20025;-69
2024/01/07 20:12:37;;;;;;;15.65;5.00;;;;;;;0.37;83.00;102748.59;4858969;29;20365;-70
2024/01/07 20:15:02;;;;;;;15.85;5.00;;;;;;;0.33;83.05;102742.44;4859880;29;20156;-70
2024/01/07 20:17:27;;;;;;;17.27;6.25;;;;;;;0.29;83.38;102740.66;4861940;29;20036;-70
2024/01/07 20:19:53;;;;;;;15.73;5.75;;;;;;;0.26;83.57;102746.81;4858173;29;20039;-70
2024/01/07 20:22:18;;;;;;;16.65;5.35;;;;;;;0.25;83.66;102750.38;4853060;29;20026;-70
2024/01/07 20:24:43;;;;;;;21.33;5.70;;;;;;;0.20;83.94;102746.81;4860184;29;20036;-70
2024/01/07 20:27:09;;;;;;;16.55;5.32;;;;;;;0.18;84.05;102748.59;4854789;29;20048;-70
2024/01/07 20:29:36;;;;;;;16.63;5.68;;;;;;;0.12;84.17;102751.25;4851850;29;20108;-70
2024/01/07 20:32:02;;;;;;;17.50;6.00;;;;;;;0.07;85.17;102753.00;4856625;29;20565;-70
2024/01/07 20:34:28;;;;;;;16.15;5.50;;;;;;;0.04;84.73;102755.63;4860565;29;20029;-70
2024/01/07 20:36:55;;;;;;;16.55;5.53;;;;;;;-0.02;85.38;102749.44;4860014;29;20069;-70
2024/01/07 20:39:21;;;;;;;19.88;5.43;;;;;;;-0.06;85.40;102750.34;4869180;29;20040;-69
2024/01/07 20:41:48;;;;;;;16.08;5.43;;;;;;;-0.07;86.08;102753.84;4887407;29;20128;-70